Time;durP1;ratioP1;P1;durP2;ratioP2;P2;SDS_P1;SDS_P2;PMS_P1;PMS_P2;Temp;Humidity;BMP_temperature;BMP_pressure;BME280_temperature;BME280_humidity;BME280_pressure;Samples;Min_cycle;Max_cycle;Signal;HPM_P1;HPM_P2
2022/11/13 00:02:39;;;;;;;26.73;20.77;;;;;;;10.29;94.71;102641.84;6384674;22;20389;-80
2022/11/13 00:05:26;;;;;;;26.77;19.63;;;;;;;10.31;94.75;102650.66;6387743;22;20345;-81
2022/11/13 00:08:14;;;;;;;26.13;17.83;;;;;;;10.30;94.91;102643.56;6388096;22;20369;-79
2022/11/13 00:11:04;;;;;;;28.33;18.30;;;;;;;10.27;95.48;102633.88;6388343;22;20349;-79
2022/11/13 00:13:51;;;;;;;24.10;18.10;;;;;;;10.28;95.19;102637.44;6384837;22;20898;-79
2022/11/13 00:16:40;;;;;;;20.90;17.40;;;;;;;10.34;94.53;102639.53;6376457;22;20405;-79
2022/11/13 00:19:28;;;;;;;23.67;18.03;;;;;;;10.28;94.83;102635.59;6376131;22;20375;-81
2022/11/13 00:22:16;;;;;;;31.57;19.67;;;;;;;10.33;94.62;102633.25;6376222;22;20385;-79
2022/11/13 00:25:03;;;;;;;24.70;18.23;;;;;;;10.27;94.54;102633.03;6375614;22;20371;-79
2022/11/13 00:27:51;;;;;;;21.53;17.50;;;;;;;10.42;93.48;102631.44;6375824;22;20681;-80
2022/11/13 00:30:39;;;;;;;26.37;19.30;;;;;;;10.39;93.67;102634.47;6376456;22;20401;-79
2022/11/13 00:33:28;;;;;;;24.13;16.93;;;;;;;10.54;92.40;102621.22;6376462;22;20877;-79
2022/11/13 00:36:36;;;;;;;23.57;17.43;;;;;;;10.38;93.43;102622.81;6376089;22;20423;-79
2022/11/13 00:39:23;;;;;;;20.73;16.17;;;;;;;10.37;93.70;102622.94;6375386;22;20335;-80
2022/11/13 00:42:11;;;;;;;20.13;16.80;;;;;;;10.42;93.20;102620.63;6373804;22;20486;-80
2022/11/13 00:44:59;;;;;;;26.63;17.37;;;;;;;10.45;92.71;102621.16;6347668;22;20394;-80
2022/11/13 00:47:46;;;;;;;20.80;16.20;;;;;;;10.46;92.45;102622.00;6346906;22;20399;-80
2022/11/13 00:50:36;;;;;;;15.10;12.87;;;;;;;10.41;92.40;102614.34;6350542;22;20766;-80
2022/11/13 00:53:24;;;;;;;22.90;13.77;;;;;;;10.48;91.90;102609.16;6355440;22;20442;-80
2022/11/13 00:56:12;;;;;;;21.63;14.03;;;;;;;10.61;90.88;102614.97;6355271;22;20351;-79
2022/11/13 00:58:59;;;;;;;20.10;14.50;;;;;;;10.50;91.39;102612.56;6366408;22;20343;-80
2022/11/13 01:01:47;;;;;;;27.60;13.47;;;;;;;10.62;90.85;102611.28;6366975;22;20426;-79
2022/11/13 01:04:35;;;;;;;15.83;13.37;;;;;;;10.56;91.25;102611.91;6365461;22;20376;-80
2022/11/13 01:07:24;;;;;;;15.60;11.57;;;;;;;10.48;91.36;102608.31;6346214;22;20423;-79
2022/11/13 01:10:13;;;;;;;21.40;12.10;;;;;;;10.44;91.86;102597.81;6346810;22;20438;-79
2022/11/13 01:13:27;;;;;;;18.83;12.57;;;;;;;10.41;92.13;102592.69;6346464;22;20469;-80
2022/11/13 01:16:49;;;;;;;18.50;13.77;;;;;;;10.64;90.60;102592.16;6347135;22;20841;-80
2022/11/13 01:19:38;;;;;;;20.23;13.20;;;;;;;10.52;91.28;102594.28;6351561;22;20406;-81
2022/11/13 01:22:27;;;;;;;21.83;13.40;;;;;;;10.47;91.46;102593.91;6349591;22;20485;-79
2022/11/13 01:25:43;;;;;;;14.20;11.33;;;;;;;10.45;91.70;102593.25;6359787;22;20445;-79
2022/11/13 01:28:33;;;;;;;21.10;13.93;;;;;;;10.43;91.73;102588.00;6355925;22;20435;-79
2022/11/13 01:31:25;;;;;;;22.53;11.37;;;;;;;10.59;91.09;102583.69;6359288;22;20398;-79
2022/11/13 01:34:12;;;;;;;18.97;12.77;;;;;;;10.61;90.34;102584.34;6358842;22;20405;-80
2022/11/13 01:37:00;;;;;;;19.67;12.47;;;;;;;10.55;90.32;102583.16;6358114;22;20347;-79
2022/11/13 01:39:50;;;;;;;23.37;10.93;;;;;;;10.54;90.64;102581.47;6362863;22;20418;-79
2022/11/13 01:46:26;;;;;;;20.23;14.10;;;;;;;10.61;90.42;102577.06;6321452;22;20811;-80
2022/11/13 01:49:28;;;;;;;20.70;11.80;;;;;;;10.59;90.04;102573.69;6346417;22;20354;-79
2022/11/13 01:52:22;;;;;;;14.90;11.60;;;;;;;10.60;90.24;102574.56;6344879;22;20393;-79
2022/11/13 01:55:16;;;;;;;20.00;14.47;;;;;;;10.65;89.48;102564.91;6347319;22;20346;-80
2022/11/13 01:58:06;;;;;;;21.60;12.43;;;;;;;10.68;89.14;102561.91;6350932;22;20342;-79
2022/11/13 02:00:54;;;;;;;16.43;12.07;;;;;;;10.62;89.64;102558.97;6352637;22;20378;-79
2022/11/13 02:03:42;;;;;;;23.07;14.37;;;;;;;10.65;89.29;102554.06;6353481;22;20429;-80
2022/11/13 02:06:35;;;;;;;19.03;13.00;;;;;;;10.64;89.05;102560.53;6353752;22;20375;-80
2022/11/13 02:09:27;;;;;;;21.87;13.80;;;;;;;10.56;89.85;102565.88;6352336;22;20682;-79
2022/11/13 02:12:21;;;;;;;17.70;13.50;;;;;;;10.68;89.04;102544.78;6354973;22;20378;-80
2022/11/13 02:15:10;;;;;;;17.80;13.20;;;;;;;10.64;89.13;102555.13;6347472;22;20361;-79
2022/11/13 02:18:00;;;;;;;21.47;14.00;;;;;;;10.72;88.96;102552.44;6345367;22;20389;-79
2022/11/13 02:20:56;;;;;;;19.87;13.67;;;;;;;10.56;89.20;102549.63;6359357;22;20373;-79
2022/11/13 02:23:50;;;;;;;18.87;14.27;;;;;;;10.66;88.94;102550.38;6359472;22;20426;-79
2022/11/13 02:26:41;;;;;;;26.10;16.20;;;;;;;10.59;89.11;102546.63;6360903;22;20350;-79
2022/11/13 02:29:29;;;;;;;18.73;14.50;;;;;;;10.56;89.72;102546.94;6354835;22;20371;-79
2022/11/13 02:32:16;;;;;;;22.60;14.90;;;;;;;10.54;90.12;102540.84;6354060;22;20435;-79
2022/11/13 02:35:04;;;;;;;19.90;15.40;;;;;;;10.55;89.28;102539.84;6356460;22;20391;-80
2022/11/13 02:37:52;;;;;;;23.93;16.23;;;;;;;10.55;89.41;102539.84;6352190;22;20350;-81
2022/11/13 02:40:40;;;;;;;23.60;14.10;;;;;;;10.62;89.06;102546.28;6345788;22;20369;-80
2022/11/13 02:43:28;;;;;;;24.23;17.40;;;;;;;10.70;88.90;102543.59;6346612;22;20451;-80
2022/11/13 02:46:17;;;;;;;23.77;17.50;;;;;;;10.80;88.12;102528.06;6346746;22;20386;-80
2022/11/13 02:49:04;;;;;;;26.07;18.17;;;;;;;10.70;88.44;102535.47;6347876;22;20351;-79
2022/11/13 02:51:52;;;;;;;23.33;16.43;;;;;;;10.61;88.97;102530.19;6345677;22;20465;-80
2022/11/13 02:54:39;;;;;;;27.73;18.93;;;;;;;10.62;89.35;102524.63;6345657;22;20338;-79
2022/11/13 02:57:28;;;;;;;26.00;16.40;;;;;;;10.62;88.89;102519.22;6346014;22;20354;-81
2022/11/13 03:00:18;;;;;;;25.07;19.40;;;;;;;10.58;89.17;102523.25;6347406;22;20790;-80
2022/11/13 03:03:05;;;;;;;33.63;20.17;;;;;;;10.56;89.36;102505.47;6347336;22;20418;-80
2022/11/13 03:05:53;;;;;;;25.00;19.90;;;;;;;10.63;88.97;102509.25;6347040;22;20455;-80
2022/11/13 03:08:41;;;;;;;23.30;18.20;;;;;;;10.63;89.04;102504.69;6347034;22;20418;-80
2022/11/13 03:11:28;;;;;;;27.00;19.50;;;;;;;10.68;88.62;102499.63;6346288;22;20427;-80
2022/11/13 03:14:16;;;;;;;29.87;21.80;;;;;;;10.49;89.22;102502.59;6345063;22;20412;-79
2022/11/13 03:17:05;;;;;;;27.70;19.60;;;;;;;10.59;89.51;102497.91;6345306;22;20835;-81
2022/11/13 03:19:52;;;;;;;29.30;19.53;;;;;;;10.55;89.73;102496.53;6346695;22;20372;-80
2022/11/13 03:22:40;;;;;;;28.10;17.77;;;;;;;10.69;88.65;102498.63;6353130;22;20470;-80
2022/11/13 03:25:27;;;;;;;21.43;16.53;;;;;;;10.72;88.77;102503.69;6352783;22;20376;-80
2022/11/13 03:28:15;;;;;;;26.23;17.43;;;;;;;10.69;88.25;102508.59;6345656;22;20374;-80
2022/11/13 03:31:04;;;;;;;23.33;19.23;;;;;;;10.65;88.56;102504.53;6343975;22;20507;-81
2022/11/13 03:33:54;;;;;;;23.77;17.90;;;;;;;10.62;88.80;102502.13;6344776;22;20407;-80
2022/11/13 03:36:42;;;;;;;26.97;19.70;;;;;;;10.53;89.24;102503.97;6344720;22;20430;-80
2022/11/13 03:39:30;;;;;;;24.37;19.77;;;;;;;10.52;89.53;102502.25;6344760;22;20407;-80
2022/11/13 03:42:18;;;;;;;25.60;21.30;;;;;;;10.51;89.50;102511.38;6344366;22;20482;-80
2022/11/13 03:45:06;;;;;;;20.77;15.47;;;;;;;10.55;89.14;102509.22;6344430;22;20416;-81
2022/11/13 03:47:54;;;;;;;22.40;17.20;;;;;;;10.47;89.46;102515.44;6344710;22;20422;-80
2022/11/13 03:50:44;;;;;;;29.87;19.53;;;;;;;10.51;89.28;102515.94;6345104;22;20451;-80
2022/11/13 03:53:32;;;;;;;19.03;17.00;;;;;;;10.47;89.27;102520.84;6344824;22;20407;-80
2022/11/13 03:56:20;;;;;;;20.40;14.13;;;;;;;10.48;88.50;102522.53;6345402;22;20415;-81
2022/11/13 03:59:08;;;;;;;19.37;14.30;;;;;;;10.48;88.34;102522.53;6346393;22;20419;-80
2022/11/13 04:01:55;;;;;;;19.70;13.63;;;;;;;10.53;87.76;102514.78;6348198;22;20342;-80
2022/11/13 04:04:43;;;;;;;20.23;14.67;;;;;;;10.41;88.21;102518.78;6347310;22;20418;-80
2022/11/13 04:07:32;;;;;;;16.60;13.13;;;;;;;10.42;88.25;102506.94;6346193;22;20890;-80
2022/11/13 04:10:19;;;;;;;18.17;12.80;;;;;;;10.37;87.98;102503.88;6346818;22;20371;-81
2022/11/13 04:13:07;;;;;;;17.63;13.30;;;;;;;10.45;88.41;102503.94;6344193;22;20466;-79
2022/11/13 04:15:55;;;;;;;17.07;13.70;;;;;;;10.35;88.62;102492.38;6342605;22;20669;-79
2022/11/13 04:18:42;;;;;;;15.30;11.97;;;;;;;10.51;87.92;102489.72;6347098;22;20372;-81
2022/11/13 04:21:30;;;;;;;25.97;14.60;;;;;;;10.43;88.28;102482.44;6352997;22;20444;-78
2022/11/13 04:24:19;;;;;;;21.20;14.23;;;;;;;10.39;88.22;102485.63;6356570;22;20434;-80
2022/11/13 04:27:06;;;;;;;22.20;14.27;;;;;;;10.47;87.75;102482.94;6357384;22;20376;-79
2022/11/13 04:29:54;;;;;;;19.10;13.17;;;;;;;10.54;86.89;102484.00;6358041;22;20411;-80
2022/11/13 04:32:42;;;;;;;17.57;12.27;;;;;;;10.41;87.10;102486.28;6360536;22;20393;-80
2022/11/13 04:35:29;;;;;;;18.37;11.80;;;;;;;10.31;87.55;102477.47;6360069;22;20435;-80
2022/11/13 04:38:17;;;;;;;20.97;15.70;;;;;;;10.33;87.52;102483.56;6347517;22;20364;-82
2022/11/13 04:44:12;;;;;;;20.43;11.93;;;;;;;10.26;87.06;102477.13;6352888;22;20397;-79
2022/11/13 04:47:00;;;;;;;13.50;10.47;;;;;;;10.30;87.10;102489.31;6350071;22;20456;-82
2022/11/13 04:49:47;;;;;;;11.80;10.27;;;;;;;10.27;87.10;102484.19;6359024;22;20365;-81
2022/11/13 04:52:35;;;;;;;13.07;11.10;;;;;;;10.20;87.44;102480.47;6365089;22;20404;-80
2022/11/13 04:55:23;;;;;;;15.33;12.30;;;;;;;10.18;87.64;102480.59;6367999;22;20367;-80
2022/11/13 04:58:12;;;;;;;13.03;11.60;;;;;;;10.20;87.75;102480.47;6368516;22;20343;-80
2022/11/13 05:00:59;;;;;;;14.77;11.10;;;;;;;10.25;87.59;102483.53;6367097;22;20417;-79
2022/11/13 05:03:47;;;;;;;12.80;10.60;;;;;;;10.33;86.97;102476.28;6366057;22;20381;-79
2022/11/13 05:06:35;;;;;;;15.43;12.57;;;;;;;10.26;87.09;102487.94;6364964;22;20379;-79
2022/11/13 05:09:23;;;;;;;19.40;13.10;;;;;;;10.21;87.58;102483.00;6363930;22;20402;-79
2022/11/13 05:12:11;;;;;;;16.87;11.20;;;;;;;10.22;87.64;102486.53;6359998;22;20471;-79
2022/11/13 05:15:00;;;;;;;13.77;11.90;;;;;;;10.20;87.87;102481.31;6358473;22;20411;-79
2022/11/13 05:17:49;;;;;;;15.30;12.30;;;;;;;10.22;87.84;102479.28;6345513;22;20858;-80
2022/11/13 05:20:37;;;;;;;16.50;12.37;;;;;;;10.32;87.51;102480.00;6346478;22;20925;-80
2022/11/13 05:23:25;;;;;;;17.97;10.33;;;;;;;10.30;86.65;102481.19;6358184;22;20420;-80
2022/11/13 05:26:14;;;;;;;15.37;12.40;;;;;;;10.23;87.40;102475.56;6358947;22;20364;-79
2022/11/13 05:29:02;;;;;;;15.83;11.80;;;;;;;10.21;87.44;102468.63;6358961;22;20376;-78
2022/11/13 05:31:51;;;;;;;19.07;12.30;;;;;;;10.23;87.37;102477.41;6362040;22;20434;-79
2022/11/13 05:34:39;;;;;;;15.17;11.30;;;;;;;10.18;87.68;102477.91;6363971;22;20384;-80
2022/11/13 05:37:28;;;;;;;17.90;13.23;;;;;;;10.15;87.94;102477.34;6365899;22;20387;-80
2022/11/13 05:40:16;;;;;;;17.40;14.00;;;;;;;10.13;88.61;102476.66;6367651;22;20383;-80
2022/11/13 05:43:04;;;;;;;16.70;12.63;;;;;;;10.20;88.35;102475.91;6367010;22;20421;-79
2022/11/13 05:45:51;;;;;;;15.80;12.97;;;;;;;10.33;87.60;102472.75;6345569;22;20367;-79
2022/11/13 05:48:41;;;;;;;16.50;13.17;;;;;;;10.28;87.47;102470.53;6345020;22;20397;-81
2022/11/13 05:51:30;;;;;;;21.07;15.60;;;;;;;10.28;88.04;102467.81;6343860;22;20398;-79
2022/11/13 05:54:18;;;;;;;18.30;13.47;;;;;;;10.17;88.55;102469.94;6344324;22;20408;-80
2022/11/13 05:57:05;;;;;;;20.47;16.10;;;;;;;10.30;87.99;102465.81;6345069;22;20858;-80
2022/11/13 05:59:53;;;;;;;25.97;17.13;;;;;;;10.30;88.04;102467.66;6345470;22;20818;-80
2022/11/13 06:02:41;;;;;;;20.40;16.17;;;;;;;10.33;87.82;102460.06;6344868;22;20393;-80
2022/11/13 06:05:30;;;;;;;23.13;17.13;;;;;;;10.33;87.89;102464.63;6345367;22;20350;-79
2022/11/13 06:08:17;;;;;;;28.60;17.37;;;;;;;10.33;88.28;102459.19;6344296;22;20439;-79
2022/11/13 06:11:06;;;;;;;18.13;13.97;;;;;;;10.28;88.71;102456.13;6344523;22;20375;-81
2022/11/13 06:13:55;;;;;;;25.70;17.93;;;;;;;10.25;88.92;102457.31;6344718;22;20496;-79
2022/11/13 06:16:43;;;;;;;22.07;16.33;;;;;;;10.22;89.53;102451.38;6346385;22;20346;-80
2022/11/13 06:19:30;;;;;;;23.10;19.03;;;;;;;10.20;90.08;102454.25;6346830;22;20347;-80
2022/11/13 06:22:20;;;;;;;23.37;16.27;;;;;;;10.18;90.44;102444.59;6346594;22;20378;-80
2022/11/13 06:25:07;;;;;;;17.00;14.70;;;;;;;10.13;91.23;102442.34;6348508;22;20343;-80
2022/11/13 06:27:55;;;;;;;16.53;12.87;;;;;;;10.26;90.52;102442.75;6347194;22;20388;-79
2022/11/13 06:30:43;;;;;;;20.30;14.50;;;;;;;10.29;90.77;102436.19;6345996;22;20342;-81
2022/11/13 06:33:31;;;;;;;30.73;16.87;;;;;;;10.27;90.81;102438.19;6346135;22;20443;-82
2022/11/13 06:36:20;;;;;;;20.93;14.73;;;;;;;10.22;91.35;102435.97;6346389;22;20401;-81
2022/11/13 06:39:10;;;;;;;21.10;13.50;;;;;;;10.30;91.07;102437.91;6346533;22;20351;-82
2022/11/13 06:41:58;;;;;;;17.47;12.50;;;;;;;10.25;91.65;102437.53;6347333;22;20430;-81
2022/11/13 06:44:45;;;;;;;20.87;14.40;;;;;;;10.27;91.79;102427.38;6372120;22;20468;-78
2022/11/13 06:47:33;;;;;;;19.23;13.10;;;;;;;10.24;92.11;102433.97;6377614;22;20909;-79
2022/11/13 06:50:21;;;;;;;19.37;13.10;;;;;;;10.25;91.98;102437.53;6382043;22;20341;-80
2022/11/13 06:53:09;;;;;;;23.60;13.33;;;;;;;10.24;92.20;102425.00;6379801;22;20500;-80
2022/11/13 06:55:59;;;;;;;22.00;13.23;;;;;;;10.15;93.02;102428.66;6363868;22;20390;-78
2022/11/13 06:58:47;;;;;;;16.90;11.50;;;;;;;10.29;92.66;102426.22;6365322;22;20377;-79
2022/11/13 07:01:35;;;;;;;17.63;12.63;;;;;;;10.36;92.01;102421.00;6364843;22;20486;-79
2022/11/13 07:04:22;;;;;;;23.43;16.37;;;;;;;10.20;92.84;102424.50;6364387;22;20439;-80
2022/11/13 07:07:10;;;;;;;21.43;16.73;;;;;;;10.16;93.37;102419.56;6354974;22;20370;-78
2022/11/13 07:09:58;;;;;;;28.13;16.17;;;;;;;10.15;93.86;102413.28;6346287;22;20373;-80
2022/11/13 07:12:47;;;;;;;28.13;17.37;;;;;;;10.20;93.83;102416.38;6345304;22;20948;-80
2022/11/13 07:15:41;;;;;;;22.87;17.30;;;;;;;10.22;93.50;102419.75;6345627;22;20415;-81
2022/11/13 07:18:29;;;;;;;18.90;14.87;;;;;;;10.23;93.96;102415.19;6350430;22;20391;-78
2022/11/13 07:21:17;;;;;;;24.40;16.30;;;;;;;10.21;94.17;102415.38;6356694;22;20400;-80
2022/11/13 07:24:06;;;;;;;26.53;14.73;;;;;;;10.29;93.99;102406.44;6353877;22;20710;-80
2022/11/13 07:27:00;;;;;;;23.70;16.57;;;;;;;10.31;93.70;102407.13;6348110;22;20467;-80
2022/11/13 07:29:49;;;;;;;22.93;17.50;;;;;;;10.20;94.64;102415.53;6353186;22;20369;-79
2022/11/13 07:32:36;;;;;;;28.60;17.90;;;;;;;10.23;94.49;102417.91;6347707;22;20457;-80
2022/11/13 07:35:24;;;;;;;22.47;17.00;;;;;;;10.24;94.63;102414.19;6364483;22;20350;-78
2022/11/13 07:38:11;;;;;;;25.20;15.97;;;;;;;10.27;94.55;102411.13;6365622;22;20399;-79
2022/11/13 07:41:00;;;;;;;26.63;17.43;;;;;;;10.36;94.04;102415.59;6357277;22;20947;-78
2022/11/13 07:43:47;;;;;;;24.30;17.50;;;;;;;10.40;94.09;102411.56;6345453;22;20401;-80
2022/11/13 07:46:38;;;;;;;24.93;17.40;;;;;;;10.33;94.35;102410.50;6347099;22;20449;-80
2022/11/13 07:49:26;;;;;;;21.90;16.70;;;;;;;10.43;94.11;102411.22;6345460;22;20389;-80
2022/11/13 07:52:14;;;;;;;24.83;15.90;;;;;;;10.39;94.25;102409.84;6346109;22;20422;-79
2022/11/13 07:55:02;;;;;;;26.17;15.53;;;;;;;10.31;95.14;102407.13;6346800;22;20412;-78
2022/11/13 07:57:50;;;;;;;20.13;13.73;;;;;;;10.45;94.45;102409.19;6346904;22;20376;-80
2022/11/13 08:00:37;;;;;;;25.67;16.17;;;;;;;10.45;94.47;102406.50;6346654;22;20426;-80
2022/11/13 08:03:27;;;;;;;20.27;14.20;;;;;;;10.45;95.04;102404.63;6346047;22;20379;-78
2022/11/13 08:06:14;;;;;;;22.80;15.77;;;;;;;10.46;94.93;102416.28;6347126;22;20364;-79
2022/11/13 08:09:02;;;;;;;24.07;15.70;;;;;;;10.46;95.35;102413.56;6346810;22;20346;-78
2022/11/13 08:11:50;;;;;;;21.10;14.33;;;;;;;10.52;95.05;102407.50;6346515;22;20411;-78
2022/11/13 08:14:37;;;;;;;20.00;13.93;;;;;;;10.40;95.57;102409.69;6347853;22;20740;-79
2022/11/13 08:17:25;;;;;;;30.73;15.50;;;;;;;10.46;95.65;102406.31;6347258;22;20389;-80
2022/11/13 08:20:14;;;;;;;24.02;16.55;;;;;;;10.53;95.32;102411.91;6347541;22;20342;-80
2022/11/13 08:23:02;;;;;;;22.57;14.13;;;;;;;10.52;95.39;102410.22;6346425;22;20269;-80
2022/11/13 08:25:50;;;;;;;29.97;18.20;;;;;;;10.56;94.88;102403.44;6349025;22;20442;-78
2022/11/13 08:28:38;;;;;;;23.10;15.40;;;;;;;10.59;95.34;102405.84;6349821;22;20375;-79
2022/11/13 08:31:25;;;;;;;26.33;15.50;;;;;;;10.52;95.22;102393.97;6349669;22;20374;-81
2022/11/13 08:34:13;;;;;;;29.73;15.57;;;;;;;10.50;95.43;102390.59;6355695;22;20541;-78
2022/11/13 08:37:02;;;;;;;28.20;15.63;;;;;;;10.55;95.83;102396.38;6346994;22;20374;-78
2022/11/13 08:39:50;;;;;;;26.57;17.47;;;;;;;10.59;95.50;102395.03;6355850;22;20367;-78
2022/11/13 08:42:38;;;;;;;29.63;16.00;;;;;;;10.62;95.41;102401.94;6361066;22;20410;-78
2022/11/13 08:45:26;;;;;;;33.37;19.87;;;;;;;10.62;94.70;102397.38;6359285;22;20366;-79
2022/11/13 08:48:13;;;;;;;31.40;17.57;;;;;;;10.66;94.26;102404.16;6356505;22;20365;-78
2022/11/13 08:51:01;;;;;;;25.13;16.67;;;;;;;10.69;94.55;102397.56;6346802;22;20365;-78
2022/11/13 08:53:50;;;;;;;30.40;16.90;;;;;;;10.71;94.40;102398.25;6344573;22;20417;-78
2022/11/13 08:56:37;;;;;;;36.97;18.57;;;;;;;10.73;94.02;102394.38;6347201;22;20346;-79
2022/11/13 08:59:26;;;;;;;39.03;18.40;;;;;;;10.81;93.96;102396.22;6345520;22;20370;-80
2022/11/13 09:02:15;;;;;;;34.53;21.13;;;;;;;10.88;93.18;102394.56;6346326;22;20746;-78
2022/11/13 09:05:02;;;;;;;28.03;18.77;;;;;;;10.97;92.47;102392.69;6345694;22;20342;-80
2022/11/13 09:07:51;;;;;;;26.30;19.10;;;;;;;10.90;92.83;102397.94;6346271;22;20490;-80
2022/11/13 09:10:40;;;;;;;31.17;19.20;;;;;;;10.93;92.65;102394.06;6358857;22;20376;-80
2022/11/13 09:13:27;;;;;;;34.23;19.30;;;;;;;10.84;93.04;102394.03;6360034;22;20445;-79
2022/11/13 09:16:15;;;;;;;30.73;18.20;;;;;;;10.91;92.69;102399.63;6354184;22;20392;-79
2022/11/13 09:19:03;;;;;;;29.03;18.40;;;;;;;10.84;92.68;102387.78;6352251;22;20715;-79
2022/11/13 09:21:51;;;;;;;31.80;19.67;;;;;;;10.79;92.69;102384.72;6345391;22;20376;-81
2022/11/13 09:24:39;;;;;;;29.13;20.17;;;;;;;10.82;91.79;102390.66;6347178;22;20411;-80
2022/11/13 09:27:28;;;;;;;30.47;18.57;;;;;;;10.76;91.20;102387.75;6346851;22;20346;-80
2022/11/13 09:30:17;;;;;;;27.80;18.67;;;;;;;10.69;91.25;102395.72;6349476;22;20361;-80
2022/11/13 09:33:04;;;;;;;22.73;15.50;;;;;;;10.80;90.49;102381.84;6346888;22;20430;-81
2022/11/13 09:35:52;;;;;;;25.87;17.40;;;;;;;10.87;89.91;102393.72;6348634;22;20350;-80
2022/11/13 09:38:40;;;;;;;27.13;17.87;;;;;;;10.96;89.47;102385.56;6350240;22;20390;-80
2022/11/13 10:20:11;;;;;;;25.53;15.80;;;;;;;11.47;83.55;102347.28;6255405;22;20403;-79
2022/11/13 10:23:08;;;;;;;22.73;14.90;;;;;;;11.43;83.16;102353.19;6357097;22;20718;-79
2022/11/13 10:26:00;;;;;;;22.43;17.27;;;;;;;11.46;82.62;102353.72;6357820;22;20386;-79
2022/11/13 10:28:56;;;;;;;17.97;15.47;;;;;;;11.36;81.35;102349.50;6356536;22;20396;-79
2022/11/13 10:31:45;;;;;;;23.50;16.73;;;;;;;11.22;81.62;102353.75;6358998;22;20406;-78
2022/11/13 10:34:33;;;;;;;21.53;15.70;;;;;;;11.13;81.49;102346.66;6358138;22;20450;-78
2022/11/13 10:37:46;;;;;;;21.53;15.00;;;;;;;11.16;81.19;102346.28;6357691;22;20350;-79
2022/11/13 10:40:35;;;;;;;22.80;15.30;;;;;;;11.05;81.48;102346.63;6360501;22;20349;-78
2022/11/13 10:43:26;;;;;;;26.00;16.37;;;;;;;11.06;81.10;102332.06;6358286;22;20439;-78
2022/11/13 10:46:20;;;;;;;23.50;17.60;;;;;;;11.11;80.87;102337.84;6355828;22;20415;-78
2022/11/13 10:49:18;;;;;;;26.77;17.93;;;;;;;11.34;80.03;102336.09;6355827;22;20337;-79
2022/11/13 10:52:18;;;;;;;22.37;16.53;;;;;;;11.46;79.78;102334.72;6356427;22;20359;-77
2022/11/13 10:55:18;;;;;;;18.33;16.30;;;;;;;11.69;78.57;102332.97;6358395;22;20423;-77
2022/11/13 10:58:13;;;;;;;18.97;14.20;;;;;;;11.65;78.41;102325.34;6357642;22;20372;-77
2022/11/13 11:01:14;;;;;;;23.70;15.70;;;;;;;11.51;78.21;102326.94;6358782;22;20366;-77
2022/11/13 11:04:04;;;;;;;17.47;14.03;;;;;;;11.44;78.41;102320.50;6357163;22;20403;-78
2022/11/13 11:06:53;;;;;;;21.73;15.77;;;;;;;11.48;77.64;102324.53;6357093;22;20346;-79
2022/11/13 11:10:01;;;;;;;18.23;14.60;;;;;;;11.54;76.98;102310.31;6357253;22;20366;-79
2022/11/13 11:12:55;;;;;;;17.13;13.67;;;;;;;11.64;76.73;102315.53;6354357;22;20393;-79
2022/11/13 11:15:47;;;;;;;19.07;15.70;;;;;;;11.77;76.56;102303.13;6347182;22;20427;-80
2022/11/13 11:18:39;;;;;;;19.80;12.93;;;;;;;11.98;74.73;102304.38;6349259;22;20398;-78
2022/11/13 11:21:32;;;;;;;19.43;15.13;;;;;;;12.00;73.97;102294.22;6347609;22;20504;-80
2022/11/13 11:24:27;;;;;;;18.73;13.47;;;;;;;11.85;73.83;102296.00;6347536;22;20457;-79
2022/11/13 11:27:21;;;;;;;23.33;14.80;;;;;;;11.97;73.74;102295.41;6345987;22;20424;-79
2022/11/13 11:30:21;;;;;;;16.70;12.97;;;;;;;11.94;73.15;102294.91;6346054;22;20377;-78
2022/11/13 11:33:15;;;;;;;17.00;13.63;;;;;;;11.92;73.33;102291.53;6347659;22;20476;-81
2022/11/13 11:36:15;;;;;;;18.60;13.30;;;;;;;11.93;72.90;102288.66;6349431;22;20390;-78
2022/11/13 11:39:15;;;;;;;17.23;13.07;;;;;;;11.77;73.29;102284.13;6354056;22;20342;-79
2022/11/13 11:42:26;;;;;;;16.30;12.07;;;;;;;11.73;73.34;102285.50;6359257;22;20360;-78
2022/11/13 11:45:25;;;;;;;21.53;13.60;;;;;;;11.65;73.30;102282.81;6367433;22;20364;-78
2022/11/13 11:48:18;;;;;;;15.57;12.87;;;;;;;11.69;73.58;102286.00;6367488;22;20359;-78
2022/11/13 11:51:14;;;;;;;28.43;15.77;;;;;;;11.83;73.15;102277.16;6362200;22;20820;-80
2022/11/13 11:54:13;;;;;;;17.87;13.27;;;;;;;11.91;72.26;102274.41;6346246;22;20425;-80
2022/11/13 11:57:14;;;;;;;15.10;12.63;;;;;;;11.94;71.24;102270.50;6347350;22;20872;-80
2022/11/13 12:00:07;;;;;;;16.53;12.00;;;;;;;11.73;71.96;102271.97;6346093;22;20370;-78
2022/11/13 12:03:23;;;;;;;16.07;12.07;;;;;;;11.65;72.73;102274.69;6347293;22;20385;-80
2022/11/13 12:06:23;;;;;;;18.20;12.43;;;;;;;11.68;73.07;102270.75;6343233;22;20470;-82
2022/11/13 12:09:17;;;;;;;16.97;12.07;;;;;;;11.36;73.63;102260.03;6345538;22;20362;-79
2022/11/13 12:12:15;;;;;;;13.90;12.07;;;;;;;11.43;73.35;102259.16;6346270;22;20396;-80
2022/11/13 12:15:10;;;;;;;16.20;12.00;;;;;;;11.44;73.53;102250.00;6345047;22;20437;-80
2022/11/13 12:18:11;;;;;;;13.07;11.40;;;;;;;11.55;73.22;102246.94;6345910;22;20366;-81
2022/11/13 12:21:09;;;;;;;19.70;12.73;;;;;;;11.53;73.26;102232.69;6353164;22;20422;-80
2022/11/13 12:24:12;;;;;;;18.60;12.23;;;;;;;11.44;73.67;102233.75;6349143;22;20398;-79
2022/11/13 12:27:13;;;;;;;22.30;12.77;;;;;;;11.53;74.01;102232.69;6346051;22;20358;-81
2022/11/13 12:30:10;;;;;;;15.57;12.20;;;;;;;11.65;73.64;102231.28;6344795;22;20885;-81
2022/11/13 12:33:16;;;;;;;24.00;11.90;;;;;;;11.62;73.63;102225.34;6344545;22;20382;-80
2022/11/13 12:36:05;;;;;;;18.53;13.10;;;;;;;11.70;73.75;102217.22;6344276;22;20413;-78
2022/11/13 12:39:02;;;;;;;21.17;14.33;;;;;;;11.76;73.66;102209.22;6344625;22;20461;-79
2022/11/13 12:41:54;;;;;;;15.70;14.00;;;;;;;11.71;73.36;102216.19;6344380;22;20380;-80
2022/11/13 12:44:54;;;;;;;17.67;13.93;;;;;;;11.73;73.43;102206.88;6345874;22;21034;-80
2022/11/13 13:00:50;;;;;;;16.43;12.47;;;;;;;11.70;74.26;102193.66;6255667;23;20756;-82
2022/11/13 13:09:12;;;;;;;21.53;13.63;;;;;;;11.67;74.42;102180.41;6203996;23;20365;-79
2022/11/13 13:24:40;;;;;;;16.63;14.43;;;;;;;11.61;75.31;102169.47;6022478;23;20414;-82
2022/11/13 13:27:33;;;;;;;23.23;13.60;;;;;;;11.63;75.08;102162.81;6044414;23;20946;-80
2022/11/13 13:30:24;;;;;;;19.40;15.20;;;;;;;11.65;75.00;102166.22;6113881;23;20428;-82
2022/11/13 13:33:23;;;;;;;22.03;14.83;;;;;;;11.61;75.08;102169.47;6163608;23;20408;-83
2022/11/13 13:36:21;;;;;;;17.10;13.47;;;;;;;11.60;74.98;102165.91;6162516;23;20463;-81
2022/11/13 13:39:22;;;;;;;20.53;13.83;;;;;;;11.55;75.27;102162.88;6162466;23;20445;-82
2022/11/13 13:42:31;;;;;;;17.80;13.23;;;;;;;11.62;75.15;102166.56;6163865;23;20391;-82
2022/11/13 13:45:31;;;;;;;21.23;14.73;;;;;;;11.63;75.20;102170.09;6170088;23;20372;-82
2022/11/13 13:48:24;;;;;;;19.33;13.20;;;;;;;11.61;74.99;102162.19;6171748;23;20356;-81
2022/11/13 13:51:26;;;;;;;17.43;13.50;;;;;;;11.53;75.26;102158.63;6179481;23;20378;-81
2022/11/13 13:54:20;;;;;;;22.73;12.33;;;;;;;11.49;75.52;102155.44;6181507;23;21079;-82
2022/11/13 13:57:13;;;;;;;21.13;13.40;;;;;;;11.40;76.02;102151.09;6255956;22;20391;-80
2022/11/13 14:00:03;;;;;;;24.40;14.67;;;;;;;11.49;75.45;102144.59;6334709;22;20356;-80
2022/11/13 14:02:53;;;;;;;19.87;13.27;;;;;;;11.39;76.19;102143.97;6336281;22;20399;-80
2022/11/13 14:05:41;;;;;;;20.13;14.90;;;;;;;11.44;76.15;102149.72;6336462;22;20335;-80
2022/11/13 14:08:29;;;;;;;19.30;13.63;;;;;;;11.37;76.28;102146.03;6332811;22;20394;-80
2022/11/13 14:11:19;;;;;;;17.10;13.50;;;;;;;11.30;76.81;102145.91;6329283;22;20396;-83
2022/11/13 14:14:17;;;;;;;16.40;12.57;;;;;;;11.26;76.82;102154.56;6319846;22;20384;-81